Sault Ste Marie Airport
CYAM : now visible

Airfield :











YOU CAN JOIN US ON...

 
LOGIN :

Register | Disclaimer

   EN    FR    IT 

 









Legend :    VFR   Marginal VFR   IFR   Intensive IFR   Very Intensive IFR
Visi :
Ceiling :
>= 8 km
>= 3000ft
5 to 8 km
1000 to 3000 ft
1500m to 5 km
500 to 1000 ft
800 to 1500m
200 to 500 ft
< 800m
< 200 ft
Symbols :   Thunderstorms  Fog  Heavy snow  Heavy precipitations  Wind > 20 kt






- Airport Elevation : 630 ft
- IATA code : YAM


CYAM - Sault Ste Marie

CURRENT METAR :
  • 261700Z 20004KT 170V230 20SM FEW012 OVC019 20/16 A2969 RMK CF1CU8 CF TR SLP057 DENSITY ALT 1600FT

EXPIRED METARs :
  • 261600Z 15004KT 080V210 15SM FEW011 SCT042 BKN230 BKN300 20/17 A2969 RMK CU1SC3CC1CI2 CC TR SLP056 DENSITY ALT 1600FT
  • 261500Z VRB02KT 12SM FEW010 BKN037 OVC049 18/16 A2972 RMK CF1CU7SC1 CF TR SLP068 DENSITY ALT 1400FT

TAF TAF CYAM
Valid from the 26 at 14:00 until the 27 at 02:00 UTC


261338Z 2614/2702 09005KT P6SM SCT070 SCT240
TEMPO 2614/2618 BKN070 BKN240
BECMG 2614/2616 22007KT
FM261800 24007KT P6SM SCT040 BKN140
TEMPO 2618/2624 BKN040 BKN140
FM270000 24005KT P6SM -RA SCT020 OVC040 RMK NXT FCST BY 262000Z
CZYZ FIR / North America



MET'MAP, your aeronautical weather chart ! - Copyright ORBIFLY December 2007 - Disclaimer

ORBIFLY MET'MAP TEAM :

Programming & Development : Alexandra Zaïnal
Concept & original design : Baudouin d'Aumeries
Assistance for programming : Marc-Olivier Méhu
Technical & hardware support : Manuel Goepfert

Contact : metmap@orbifly.com




SOURCES & CREDITS :

   NOAA       Earth
Advisory